California Conservation Cent, California
Current Conditions -  °F | °C
As of 8:12 AM on Monday 24 Nov 2014 (Local Time) from KAAT Reporting Station
Haze Haze  
Wind Chill: 26°   Ceiling: Unl
Heat Index: 26°   Visibility: 3mi
Dew Point: 22°   Wind: 0mph
Humidity: 84%   Direction: NA
Pressure: 30.45"   Gusts: NA
Location:  40.5172°N, 120.68°W
Report Text: KAAT 241612Z AUTO 00000KT 3SM BR CLR M03/M06 A3045 RMK AO2 T10331056
Loading
Personal Weather Stations






























Interactive Weather Map New forecast layout! Learn more

10-Day Weather Forecast

Advertisements
Track Severe Weather on mobile